createdAt,value
2023-04-07T00:01:37.915Z,77.60
2023-04-07T00:05:19.744Z,77.80
2023-04-07T00:09:01.766Z,77.80
2023-04-07T00:12:43.541Z,78.00
2023-04-07T00:16:25.368Z,78.10
2023-04-07T00:20:07.946Z,78.20
2023-04-07T00:23:50.005Z,78.30
2023-04-07T00:27:31.980Z,78.30
2023-04-07T00:31:14.217Z,78.30
2023-04-07T00:34:56.135Z,78.10
2023-04-07T00:38:37.892Z,78.00
2023-04-07T00:42:19.886Z,78.00
2023-04-07T00:46:01.791Z,78.30
2023-04-07T00:49:43.592Z,78.30
2023-04-07T00:53:25.572Z,78.50
2023-04-07T00:57:07.524Z,78.70
2023-04-07T01:00:59.401Z,78.90
2023-04-07T01:05:05.502Z,79.20
2023-04-07T01:08:56.374Z,79.10
2023-04-07T01:13:20.028Z,79.70
2023-04-07T01:17:03.704Z,78.80
2023-04-07T01:20:48.879Z,79.00
2023-04-07T01:25:04.985Z,79.00
2023-04-07T01:29:17.771Z,78.90
2023-04-07T01:33:01.792Z,78.90
2023-04-07T01:36:45.739Z,79.00
2023-04-07T01:40:29.185Z,79.20
2023-04-07T01:44:11.756Z,79.50
2023-04-07T01:47:54.474Z,79.70
2023-04-07T01:51:36.624Z,79.80
2023-04-07T01:55:18.404Z,79.90
2023-04-07T01:59:00.223Z,80.00
2023-04-07T02:02:45.199Z,80.10
2023-04-07T02:06:35.828Z,80.20
2023-04-07T02:10:21.406Z,80.30
2023-04-07T02:14:06.689Z,80.60
2023-04-07T02:17:52.750Z,80.60
2023-04-07T02:21:35.769Z,80.80
2023-04-07T02:25:29.098Z,81.00
2023-04-07T02:29:10.857Z,81.00
2023-04-07T02:32:53.293Z,81.10
2023-04-07T02:36:35.187Z,81.20
2023-04-07T02:40:17.125Z,81.30
2023-04-07T02:43:58.874Z,81.60
2023-04-07T02:47:40.825Z,81.70
2023-04-07T02:51:23.285Z,81.90
2023-04-07T02:55:06.168Z,82.00
2023-04-07T02:58:48.124Z,82.20
2023-04-07T03:02:30.007Z,82.40
2023-04-07T03:06:11.845Z,82.50
2023-04-07T03:09:53.588Z,82.60
2023-04-07T03:13:35.427Z,82.70
2023-04-07T03:17:17.416Z,82.80
2023-04-07T03:20:59.441Z,82.90
2023-04-07T03:24:41.259Z,83.00
2023-04-07T03:28:23.028Z,83.00
2023-04-07T03:32:04.947Z,83.00
2023-04-07T03:35:46.877Z,83.00
2023-04-07T03:39:28.695Z,83.00
2023-04-07T03:43:14.081Z,83.00
2023-04-07T03:46:56.129Z,83.00
2023-04-07T03:50:39.969Z,83.10
2023-04-07T03:54:21.735Z,83.20
2023-04-07T03:58:03.533Z,83.20
2023-04-07T04:01:45.434Z,83.30
2023-04-07T04:05:27.425Z,83.20
2023-04-07T04:09:09.261Z,83.20
2023-04-07T04:12:51.310Z,83.20
2023-04-07T04:16:33.096Z,83.10
2023-04-07T04:20:14.836Z,83.10
2023-04-07T04:23:56.576Z,83.20
2023-04-07T04:27:38.304Z,83.20
2023-04-07T04:31:20.104Z,83.20
2023-04-07T04:35:01.995Z,83.40
2023-04-07T04:38:43.762Z,83.50
2023-04-07T04:42:27.043Z,83.50
2023-04-07T04:46:08.793Z,83.70
2023-04-07T04:49:50.625Z,83.80
2023-04-07T04:53:32.597Z,83.90
2023-04-07T04:57:14.412Z,84.00
2023-04-07T05:01:00.382Z,84.10
2023-04-07T05:04:42.238Z,84.10
2023-04-07T05:08:24.191Z,84.10
2023-04-07T05:12:06.109Z,84.20
2023-04-07T05:15:48.119Z,84.30
2023-04-07T05:19:30.489Z,84.40
2023-04-07T05:23:12.324Z,84.50
2023-04-07T05:26:54.197Z,84.50
2023-04-07T05:30:35.931Z,84.70
2023-04-07T05:34:17.756Z,84.70
2023-04-07T05:37:59.608Z,84.90
2023-04-07T05:41:41.391Z,85.00
2023-04-07T05:45:24.042Z,85.20
2023-04-07T05:49:19.037Z,85.20
2023-04-07T05:53:02.032Z,85.40
2023-04-07T05:56:43.842Z,85.50
2023-04-07T06:00:25.755Z,85.60
2023-04-07T06:04:07.693Z,85.60
2023-04-07T06:07:49.460Z,85.90
2023-04-07T06:11:31.188Z,86.10
2023-04-07T06:15:12.967Z,86.20
2023-04-07T06:18:54.762Z,86.30
2023-04-07T06:22:36.616Z,86.40
2023-04-07T06:26:18.478Z,86.50
2023-04-07T06:30:00.370Z,86.70
2023-04-07T06:33:42.296Z,86.80
2023-04-07T06:37:25.135Z,86.90
2023-04-07T06:41:08.625Z,87.10
2023-04-07T06:44:50.496Z,87.20
2023-04-07T06:48:32.238Z,87.40
2023-04-07T06:52:13.973Z,87.60
2023-04-07T06:56:06.678Z,87.80
2023-04-07T06:59:48.466Z,88.10
2023-04-07T07:03:31.753Z,88.70
2023-04-07T07:07:13.621Z,89.30
2023-04-07T07:10:56.130Z,90.00
2023-04-07T07:14:37.954Z,90.00
2023-04-07T07:18:19.817Z,90.10
2023-04-07T07:22:04.071Z,90.50
2023-04-07T07:25:46.655Z,90.70
2023-04-07T07:29:28.389Z,90.70
2023-04-07T07:33:10.292Z,90.80
2023-04-07T07:36:52.191Z,91.10
2023-04-07T07:40:34.159Z,91.30
2023-04-07T07:44:17.464Z,91.60
2023-04-07T07:47:59.301Z,91.60
2023-04-07T07:51:41.188Z,91.50
2023-04-07T07:55:23.031Z,91.40
2023-04-07T07:59:07.980Z,91.00
2023-04-07T08:02:49.989Z,90.60
2023-04-07T08:06:31.778Z,90.20
2023-04-07T08:10:14.129Z,89.80
2023-04-07T08:13:55.934Z,89.00
2023-04-07T08:17:38.366Z,87.70
2023-04-07T08:21:21.055Z,86.80
2023-04-07T08:25:03.328Z,85.50
2023-04-07T08:28:45.352Z,84.50
2023-04-07T08:32:38.316Z,82.50
2023-04-07T08:36:23.852Z,81.80
2023-04-07T08:40:06.269Z,81.30
2023-04-07T08:43:49.790Z,79.60
2023-04-07T08:47:35.946Z,76.70
2023-04-07T08:51:30.331Z,74.00
2023-04-07T08:55:12.839Z,72.40
2023-04-07T08:58:55.614Z,71.30
2023-04-07T09:02:44.523Z,69.60
2023-04-07T09:06:27.337Z,70.00
2023-04-07T09:10:09.920Z,70.70
2023-04-07T09:13:51.769Z,71.10
2023-04-07T09:17:33.571Z,71.10
2023-04-07T09:21:15.907Z,71.30
2023-04-07T09:25:13.935Z,70.20
2023-04-07T09:28:59.933Z,70.70
2023-04-07T09:32:42.214Z,70.30
2023-04-07T09:36:25.174Z,70.40
2023-04-07T09:40:07.770Z,69.30
2023-04-07T09:43:56.658Z,68.30
2023-04-07T09:47:39.246Z,67.60
2023-04-07T09:51:21.167Z,66.80
2023-04-07T09:55:06.091Z,64.80
2023-04-07T09:58:54.285Z,61.90
2023-04-07T10:02:36.757Z,58.50
2023-04-07T10:06:20.610Z,55.00
2023-04-07T10:10:04.116Z,53.80
2023-04-07T10:13:46.695Z,51.50
2023-04-07T10:17:29.414Z,48.80
2023-04-07T10:21:15.204Z,47.00
2023-04-07T10:25:11.129Z,46.20
2023-04-07T10:28:59.494Z,49.20
2023-04-07T10:32:49.446Z,44.40
2023-04-07T10:36:31.990Z,45.20
2023-04-07T10:40:20.318Z,40.60
2023-04-07T10:44:03.722Z,41.10
2023-04-07T10:48:05.610Z,38.40
2023-04-07T10:52:13.422Z,46.10
2023-04-07T10:55:56.824Z,45.10
2023-04-07T10:59:41.732Z,37.70
2023-04-07T11:03:24.846Z,39.00
2023-04-07T11:07:07.556Z,36.60
2023-04-07T11:10:49.636Z,35.60
2023-04-07T11:14:33.554Z,36.20
2023-04-07T11:18:18.292Z,35.80
2023-04-07T11:26:04.990Z,41.10
2023-04-07T11:29:46.915Z,50.00
2023-04-07T11:33:31.694Z,34.80
2023-04-07T11:37:21.062Z,35.30
2023-04-07T11:41:12.009Z,35.70
2023-04-07T11:44:53.795Z,35.00
2023-04-07T11:48:36.670Z,32.50
2023-04-07T11:52:18.426Z,32.40
2023-04-07T11:56:12.593Z,31.80
2023-04-07T12:00:12.076Z,33.90
2023-04-07T12:04:06.560Z,37.40
2023-04-07T12:07:55.689Z,34.20
2023-04-07T12:11:37.453Z,31.90
2023-04-07T12:15:20.583Z,31.00
2023-04-07T12:19:02.395Z,29.80
2023-04-07T12:22:44.139Z,30.60
2023-04-07T12:26:25.945Z,29.70
2023-04-07T12:30:08.563Z,29.00
2023-04-07T12:33:50.717Z,30.00
2023-04-07T12:37:33.698Z,28.20
2023-04-07T12:41:15.598Z,28.80
2023-04-07T12:44:57.395Z,29.30
2023-04-07T12:48:39.253Z,29.10
2023-04-07T12:52:20.997Z,28.70
2023-04-07T12:56:02.791Z,28.50
2023-04-07T12:59:45.452Z,28.20
2023-04-07T13:03:27.468Z,27.20
2023-04-07T13:07:09.975Z,26.90
2023-04-07T13:10:51.716Z,25.70
2023-04-07T13:14:34.036Z,25.30
2023-04-07T13:18:15.941Z,26.20
2023-04-07T13:21:58.048Z,26.10
2023-04-07T13:25:39.965Z,26.40
2023-04-07T13:29:22.111Z,26.10
2023-04-07T13:33:04.002Z,25.80
2023-04-07T13:36:45.831Z,25.40
2023-04-07T13:40:27.580Z,25.40
2023-04-07T13:44:09.356Z,25.50
2023-04-07T13:47:51.300Z,24.50
2023-04-07T13:51:33.961Z,25.10
2023-04-07T13:55:16.993Z,25.30
2023-04-07T13:58:59.016Z,26.60
2023-04-07T14:02:41.142Z,25.50
2023-04-07T14:06:23.123Z,25.40
2023-04-07T14:10:05.543Z,24.90
2023-04-07T14:13:47.856Z,25.20
2023-04-07T14:17:29.907Z,25.50
2023-04-07T14:21:11.777Z,25.20
2023-04-07T14:24:53.657Z,25.60
2023-04-07T14:28:35.431Z,26.30
2023-04-07T14:32:17.439Z,25.50
2023-04-07T14:35:59.284Z,25.10
2023-04-07T14:39:41.767Z,25.50
2023-04-07T14:43:25.619Z,25.50
2023-04-07T14:47:07.771Z,25.80
2023-04-07T14:50:56.330Z,26.10
2023-04-07T14:54:44.268Z,24.70
2023-04-07T14:58:26.018Z,24.90
2023-04-07T15:02:07.913Z,25.70
2023-04-07T15:05:49.777Z,26.00
2023-04-07T15:09:31.680Z,26.20
2023-04-07T15:13:13.591Z,26.10
2023-04-07T15:16:55.371Z,26.80
2023-04-07T15:20:37.465Z,27.50
2023-04-07T15:24:21.789Z,26.20
2023-04-07T15:28:03.586Z,27.80
2023-04-07T15:31:45.707Z,26.10
2023-04-07T15:35:27.706Z,27.80
2023-04-07T15:39:09.464Z,27.10
2023-04-07T15:42:51.234Z,27.10
2023-04-07T15:46:33.102Z,28.00
2023-04-07T15:50:14.945Z,28.00
2023-04-07T15:53:56.723Z,29.00
2023-04-07T15:57:38.513Z,28.30
2023-04-07T16:01:20.754Z,30.40
2023-04-07T16:05:03.393Z,30.60
2023-04-07T16:08:45.188Z,30.60
2023-04-07T16:12:26.921Z,32.00
2023-04-07T16:16:08.712Z,31.90
2023-04-07T16:19:50.525Z,31.80
2023-04-07T16:23:32.278Z,31.60
2023-04-07T16:27:14.026Z,32.40
2023-04-07T16:30:55.829Z,31.80
2023-04-07T16:34:37.630Z,32.20
2023-04-07T16:38:19.365Z,32.70
2023-04-07T16:42:01.128Z,32.50
2023-04-07T16:45:42.965Z,32.30
2023-04-07T16:49:24.796Z,31.70
2023-04-07T16:53:06.563Z,31.20
2023-04-07T16:56:49.572Z,32.70
2023-04-07T17:00:31.526Z,33.80
2023-04-07T17:04:13.389Z,34.40
2023-04-07T17:07:56.773Z,33.20
2023-04-07T17:11:41.204Z,32.50
2023-04-07T17:15:23.725Z,34.20
2023-04-07T17:19:05.734Z,34.40
2023-04-07T17:22:49.100Z,35.30
2023-04-07T17:26:31.580Z,34.80
2023-04-07T17:30:13.671Z,35.90
2023-04-07T17:33:55.552Z,35.60
2023-04-07T17:37:38.356Z,36.40
2023-04-07T17:41:21.193Z,37.00
2023-04-07T17:45:03.392Z,36.60
2023-04-07T17:48:45.167Z,37.50
2023-04-07T17:52:28.961Z,37.60
2023-04-07T17:56:10.707Z,37.10
2023-04-07T17:59:52.503Z,37.30
2023-04-07T18:03:34.471Z,38.70
2023-04-07T18:07:17.257Z,39.90
2023-04-07T18:10:59.036Z,39.30
2023-04-07T18:14:41.041Z,40.20
2023-04-07T18:18:22.857Z,40.80
2023-04-07T18:22:05.499Z,40.10
2023-04-07T18:25:47.709Z,41.50
2023-04-07T18:29:30.744Z,41.40
2023-04-07T18:33:14.263Z,41.30
2023-04-07T18:36:56.196Z,40.40
2023-04-07T18:40:38.103Z,41.90
2023-04-07T18:44:19.961Z,41.30
2023-04-07T18:48:01.890Z,41.40
2023-04-07T18:51:44.730Z,41.60
2023-04-07T18:55:27.381Z,41.60
2023-04-07T18:59:09.286Z,42.40
2023-04-07T19:02:51.479Z,42.90
2023-04-07T19:06:33.412Z,43.30
2023-04-07T19:10:15.449Z,44.00
2023-04-07T19:13:57.356Z,44.50
2023-04-07T19:17:39.254Z,44.50
2023-04-07T19:21:21.173Z,45.10
2023-04-07T19:25:03.050Z,46.20
2023-04-07T19:28:45.515Z,46.40
2023-04-07T19:32:28.407Z,46.90
2023-04-07T19:36:11.052Z,48.00
2023-04-07T19:40:02.367Z,48.90
2023-04-07T19:43:45.660Z,48.90
2023-04-07T19:47:28.991Z,49.70
2023-04-07T19:51:10.848Z,50.60
2023-04-07T19:54:52.729Z,50.60
2023-04-07T19:58:34.577Z,49.40
2023-04-07T20:02:16.507Z,49.70
2023-04-07T20:05:58.381Z,50.60
2023-04-07T20:09:40.249Z,51.10
2023-04-07T20:13:23.245Z,50.80
2023-04-07T20:17:05.360Z,51.20
2023-04-07T20:20:47.400Z,50.90
2023-04-07T20:24:29.222Z,51.70
2023-04-07T20:28:10.978Z,52.00
2023-04-07T20:31:52.780Z,51.60
2023-04-07T20:35:34.839Z,52.50
2023-04-07T20:39:16.807Z,53.30
2023-04-07T20:42:58.535Z,53.80
2023-04-07T20:46:40.843Z,53.70
2023-04-07T20:50:23.185Z,54.00
2023-04-07T20:54:05.264Z,54.50
2023-04-07T20:57:47.487Z,54.50
2023-04-07T21:01:29.359Z,54.90
2023-04-07T21:05:11.239Z,55.10
2023-04-07T21:08:52.988Z,55.70
2023-04-07T21:12:34.767Z,55.90
2023-04-07T21:16:16.600Z,56.10
2023-04-07T21:19:58.371Z,56.40
2023-04-07T21:23:40.873Z,56.50
2023-04-07T21:27:22.986Z,56.80
2023-04-07T21:31:05.885Z,57.10
2023-04-07T21:34:51.269Z,57.20
2023-04-07T21:38:33.297Z,57.20
2023-04-07T21:42:15.069Z,57.60
2023-04-07T21:45:57.056Z,57.80
2023-04-07T21:49:39.120Z,58.00
2023-04-07T21:53:20.976Z,58.30
2023-04-07T21:57:02.718Z,58.60
2023-04-07T22:00:47.642Z,58.90
2023-04-07T22:04:29.536Z,59.20
2023-04-07T22:08:11.641Z,59.30
2023-04-07T22:11:53.999Z,59.50
2023-04-07T22:15:35.759Z,59.70
2023-04-07T22:19:17.980Z,59.90
2023-04-07T22:22:59.902Z,60.40
2023-04-07T22:26:42.112Z,60.90
2023-04-07T22:30:24.605Z,61.40
2023-04-07T22:34:06.480Z,61.80
2023-04-07T22:37:48.346Z,62.00
2023-04-07T22:41:30.371Z,62.30
2023-04-07T22:45:12.436Z,62.50
2023-04-07T22:48:54.255Z,62.70
2023-04-07T22:52:36.076Z,63.00
2023-04-07T22:56:17.813Z,63.00
2023-04-07T22:59:59.595Z,63.10
2023-04-07T23:03:41.465Z,63.20
2023-04-07T23:07:23.306Z,63.30
2023-04-07T23:11:09.248Z,63.40
2023-04-07T23:14:52.184Z,63.70
2023-04-07T23:18:33.982Z,63.80
2023-04-07T23:22:16.087Z,63.90
2023-04-07T23:25:57.856Z,64.10
2023-04-07T23:29:39.596Z,64.40
2023-04-07T23:33:21.726Z,64.70
2023-04-07T23:37:03.677Z,64.90
2023-04-07T23:40:45.458Z,65.30
2023-04-07T23:44:27.193Z,65.50
2023-04-07T23:48:08.952Z,65.60
2023-04-07T23:51:51.326Z,65.80
2023-04-07T23:55:33.206Z,66.00
2023-04-07T23:59:15.007Z,66.20
